Time;durP1;ratioP1;P1;durP2;ratioP2;P2;SDS_P1;SDS_P2;PMS_P1;PMS_P2;Temp;Humidity;BMP_temperature;BMP_pressure;BME280_temperature;BME280_humidity;BME280_pressure;Samples;Min_cycle;Max_cycle;Signal;HPM_P1;HPM_P2
2021/04/02 05:11:55;;;;;;;24.40;12.93;;;;;;;6.07;87.29;98774.41;1833002;77;25842;-58
2021/04/02 05:14:23;;;;;;;18.07;9.70;;;;;;;5.99;87.21;98787.31;1762227;81;21591;-58
2021/04/02 05:16:52;;;;;;;15.68;8.15;;;;;;;5.96;87.25;98785.02;1762512;81;21724;-59
2021/04/02 05:19:20;;;;;;;11.00;6.78;;;;;;;5.92;87.38;98785.33;1742892;81;21202;-59
2021/04/02 05:21:49;;;;;;;10.20;6.20;;;;;;;5.95;87.70;98785.50;1766006;80;21620;-59
2021/04/02 05:24:18;;;;;;;11.88;6.50;;;;;;;6.00;87.92;98791.53;1777582;78;21165;-59
2021/04/02 05:26:47;;;;;;;11.35;5.62;;;;;;;6.03;88.02;98786.06;1778249;80;21601;-56
2021/04/02 05:29:15;;;;;;;8.93;5.75;;;;;;;6.07;88.17;98780.40;1778206;81;21601;-57
2021/04/02 05:31:45;;;;;;;5.65;4.55;;;;;;;6.09;88.07;98778.49;1778159;81;21577;-58
2021/04/02 05:34:15;;;;;;;6.28;4.53;;;;;;;6.12;88.34;98775.58;1750946;81;21175;-60
2021/04/02 05:36:44;;;;;;;6.55;4.20;;;;;;;6.19;88.59;98772.70;1777521;81;21542;-61
2021/04/02 05:39:12;;;;;;;5.67;4.12;;;;;;;6.27;88.58;98771.94;1778148;81;22169;-60
2021/04/02 05:42:02;;;;;;;7.45;4.20;;;;;;;6.31;88.46;98762.89;1777421;80;21131;-58
2021/04/02 05:44:34;;;;;;;7.42;4.28;;;;;;;6.34;88.27;98758.70;1777617;81;21292;-61
2021/04/02 05:47:05;;;;;;;12.37;5.53;;;;;;;6.35;88.26;98756.92;1789918;78;21253;-57
2021/04/02 05:49:34;;;;;;;12.18;6.08;;;;;;;6.32;88.13;98759.81;1717441;81;21363;-62
2021/04/02 05:52:04;;;;;;;7.58;5.85;;;;;;;6.32;88.27;98753.33;1746121;81;21153;-59
2021/04/02 05:54:38;;;;;;;10.00;7.20;;;;;;;6.32;88.27;98748.14;1730994;83;21277;-57
2021/04/02 05:57:09;;;;;;;8.43;5.50;;;;;;;6.30;88.34;98748.30;1730981;83;21190;-58
2021/04/02 05:59:39;;;;;;;7.87;4.70;;;;;;;6.28;88.44;98748.13;1730801;83;21292;-57
2021/04/02 06:02:10;;;;;;;6.87;4.47;;;;;;;6.28;88.78;98743.76;1704556;83;21324;-57
2021/04/02 06:04:39;;;;;;;6.08;4.03;;;;;;;6.34;89.09;98741.03;1730441;83;21194;-55
2021/04/02 06:07:08;;;;;;;7.83;4.90;;;;;;;6.39;89.27;98736.17;1712749;83;21641;-55
2021/04/02 06:09:36;;;;;;;12.68;6.15;;;;;;;6.41;89.10;98736.36;1706469;84;21618;-56
2021/04/02 06:12:10;;;;;;;9.98;6.03;;;;;;;6.44;89.16;98737.83;1692015;85;21572;-58
2021/04/02 06:14:38;;;;;;;7.75;5.53;;;;;;;6.43;88.97;98754.36;1724643;83;21173;-64
2021/04/02 06:17:07;;;;;;;7.28;4.20;;;;;;;6.40;88.97;98758.58;1726075;83;21698;-58
2021/04/02 06:19:35;;;;;;;4.22;3.33;;;;;;;6.40;89.15;98759.39;1726357;83;21779;-57
2021/04/02 06:22:05;;;;;;;4.05;2.83;;;;;;;6.44;89.33;98757.28;1726241;83;21720;-62
2021/04/02 06:24:42;;;;;;;6.67;4.03;;;;;;;6.45;89.04;98756.31;1726005;83;21528;-57
2021/04/02 06:27:14;;;;;;;4.22;3.37;;;;;;;6.42;88.74;98757.45;1725282;83;21260;-59
2021/04/02 06:30:01;;;;;;;3.90;2.70;;;;;;;6.38;88.51;98766.98;1707690;84;21131;-57
2021/04/02 06:32:35;;;;;;;3.65;2.80;;;;;;;6.33;88.12;98773.11;1704389;84;21163;-59
2021/04/02 06:35:09;;;;;;;4.03;2.75;;;;;;;6.26;88.23;98781.98;1699585;84;21949;-66
2021/04/02 06:37:39;;;;;;;3.00;2.30;;;;;;;6.25;88.19;98792.52;1706487;84;21176;-72
2021/04/02 06:40:19;;;;;;;6.05;2.95;;;;;;;6.22;88.11;98796.73;1707455;84;21599;-65
2021/04/02 06:42:47;;;;;;;2.10;1.55;;;;;;;6.20;87.90;98807.23;1707530;84;21726;-63
2021/04/02 06:45:17;;;;;;;1.67;1.02;;;;;;;6.14;87.56;98813.03;1687214;84;21586;-67
2021/04/02 06:47:46;;;;;;;2.87;1.30;;;;;;;6.07;87.23;98817.19;1693724;85;21696;-60
2021/04/02 06:50:23;;;;;;;1.95;1.32;;;;;;;5.97;87.02;98814.70;1688450;84;21723;-61
2021/04/02 06:52:55;;;;;;;4.42;2.10;;;;;;;5.90;87.03;98817.50;1690731;84;21172;-65
2021/04/02 06:55:25;;;;;;;3.08;1.87;;;;;;;5.83;86.82;98827.66;1691828;84;21632;-65
2021/04/02 06:57:55;;;;;;;1.65;1.30;;;;;;;5.75;86.30;98833.26;1711649;84;21329;-67
2021/04/02 07:00:26;;;;;;;5.42;2.02;;;;;;;5.64;86.14;98838.17;1713950;84;21859;-62
2021/04/02 07:02:55;;;;;;;2.25;1.37;;;;;;;5.56;86.24;98837.62;1713936;84;21293;-60
2021/04/02 07:05:25;;;;;;;2.52;1.47;;;;;;;5.49;86.49;98843.05;1701387;84;21581;-59
2021/04/02 07:08:07;;;;;;;2.12;0.95;;;;;;;5.46;86.66;98845.92;1700996;84;21218;-60
2021/04/02 07:10:37;;;;;;;2.02;1.10;;;;;;;5.39;86.66;98847.47;1702856;84;21257;-58
2021/04/02 07:13:08;;;;;;;5.42;2.45;;;;;;;5.35;86.82;98851.33;1748166;81;21280;-58
2021/04/02 07:15:38;;;;;;;3.70;1.77;;;;;;;5.29;86.81;98854.50;1750022;82;21163;-59
2021/04/02 07:18:09;;;;;;;7.85;3.08;;;;;;;5.23;86.76;98861.55;1755885;82;21183;-58
2021/04/02 07:20:37;;;;;;;6.08;2.42;;;;;;;5.16;86.92;98851.44;1755656;82;21187;-66
2021/04/02 07:23:06;;;;;;;8.90;3.90;;;;;;;5.14;87.30;98863.20;1754909;81;21597;-62
2021/04/02 07:25:35;;;;;;;6.25;2.70;;;;;;;5.10;87.45;98863.99;1754154;82;21175;-65
2021/04/02 07:28:04;;;;;;;11.57;4.70;;;;;;;5.07;87.17;98866.04;1754943;82;21922;-66
2021/04/02 07:30:33;;;;;;;6.55;2.85;;;;;;;4.99;87.14;98865.47;1711165;82;21174;-69
2021/04/02 07:33:10;;;;;;;5.58;2.72;;;;;;;4.98;87.32;98875.97;1728913;82;21285;-64
2021/04/02 07:35:40;;;;;;;3.70;2.05;;;;;;;4.98;87.54;98887.14;1753830;82;21135;-60
2021/04/02 07:38:12;;;;;;;4.65;2.70;;;;;;;4.94;87.14;98881.89;1756252;82;21701;-68
2021/04/02 07:40:44;;;;;;;2.60;1.42;;;;;;;4.87;86.94;98876.95;1756151;82;21175;-60
2021/04/02 07:43:12;;;;;;;2.40;1.75;;;;;;;4.83;87.04;98889.34;1736243;82;21745;-59
2021/04/02 07:45:41;;;;;;;1.82;1.00;;;;;;;4.80;87.19;98886.24;1755043;82;21681;-58
2021/04/02 07:48:22;;;;;;;2.33;1.65;;;;;;;4.79;87.30;98890.61;1755960;82;21147;-58
2021/04/02 07:50:59;;;;;;;1.70;1.40;;;;;;;4.79;87.40;98895.78;1734093;82;21185;-61
2021/04/02 07:53:36;;;;;;;3.00;1.70;;;;;;;4.80;87.53;98891.42;1719614;83;21292;-57
2021/04/02 07:56:17;;;;;;;2.37;1.67;;;;;;;4.79;87.20;98890.61;1719667;83;21194;-57
2021/04/02 07:58:52;;;;;;;1.95;1.30;;;;;;;4.76;87.05;98901.22;1728312;82;21269;-64
2021/04/02 08:01:22;;;;;;;1.05;0.72;;;;;;;4.75;86.84;98898.30;1725981;82;21163;-58
2021/04/02 08:03:53;;;;;;;0.88;0.88;;;;;;;4.73;86.72;98898.11;1746354;80;21673;-59
2021/04/02 08:06:37;;;;;;;1.77;1.12;;;;;;;4.73;86.75;98904.11;1765862;80;21265;-58
2021/04/02 08:09:08;;;;;;;2.45;1.62;;;;;;;4.80;87.37;98896.11;1743011;82;21190;-59
2021/04/02 08:11:47;;;;;;;0.78;0.57;;;;;;;4.89;87.09;98893.15;1756928;80;21634;-58
2021/04/02 08:14:19;;;;;;;0.93;0.70;;;;;;;4.98;86.96;98897.97;1746302;81;21404;-64
2021/04/02 08:16:55;;;;;;;2.45;1.22;;;;;;;5.08;86.64;98916.38;1736323;80;21623;-62
2021/04/02 08:19:35;;;;;;;2.50;1.50;;;;;;;5.10;85.65;98906.72;1734522;80;21130;-65
2021/04/02 08:22:10;;;;;;;2.80;1.70;;;;;;;5.12;85.31;98913.86;1724805;80;22508;-61
2021/04/02 08:24:43;;;;;;;5.03;2.17;;;;;;;5.11;85.38;98912.23;1746319;80;21131;-62
2021/04/02 08:27:12;;;;;;;3.45;1.50;;;;;;;5.17;85.88;98906.14;1729939;82;21191;-63
2021/04/02 08:29:43;;;;;;;1.32;0.90;;;;;;;5.30;86.12;98911.81;1747287;82;21183;-65
2021/04/02 08:32:14;;;;;;;1.82;1.30;;;;;;;5.36;85.28;98910.76;1737451;80;21206;-65
2021/04/02 08:34:43;;;;;;;1.82;1.45;;;;;;;5.42;84.99;98917.63;1742133;80;21746;-67
2021/04/02 08:37:14;;;;;;;0.60;0.60;;;;;;;5.44;84.88;98925.58;1738253;80;21914;-58
2021/04/02 08:39:43;;;;;;;0.42;0.42;;;;;;;5.52;84.95;98946.88;1742282;80;21171;-58
2021/04/02 08:42:12;;;;;;;0.40;0.40;;;;;;;5.55;83.20;98931.05;1746509;82;21789;-58
2021/04/02 08:44:44;;;;;;;1.02;0.85;;;;;;;5.49;81.90;98932.44;1746575;81;21643;-61
2021/04/02 08:47:15;;;;;;;0.45;0.45;;;;;;;5.41;81.55;98928.47;1741142;82;21143;-59
2021/04/02 08:49:52;;;;;;;3.47;1.62;;;;;;;5.34;81.66;98928.23;1746021;81;21140;-59
2021/04/02 08:52:29;;;;;;;0.85;0.60;;;;;;;5.32;81.99;98927.53;1747393;82;21132;-61
2021/04/02 08:55:00;;;;;;;2.10;1.77;;;;;;;5.33;81.78;98927.05;1744632;82;21163;-59
2021/04/02 08:57:31;;;;;;;2.33;2.00;;;;;;;5.30;81.45;98935.94;1747181;80;21598;-59
2021/04/02 09:00:00;;;;;;;1.37;1.27;;;;;;;5.27;81.17;98932.80;1748088;82;21135;-59
2021/04/02 09:02:30;;;;;;;0.95;0.65;;;;;;;5.24;80.92;98927.92;1746726;82;21352;-58
2021/04/02 09:05:01;;;;;;;1.60;1.07;;;;;;;5.24;81.29;98928.73;1748167;82;21642;-58
2021/04/02 09:07:39;;;;;;;1.82;1.15;;;;;;;5.24;81.17;98932.63;1737374;81;21722;-60
2021/04/02 09:10:17;;;;;;;0.98;0.60;;;;;;;5.26;81.35;98934.58;1748102;82;21257;-62
2021/04/02 09:12:48;;;;;;;2.10;1.10;;;;;;;5.23;80.73;98927.11;1748113;81;21226;-62
2021/04/02 09:15:26;;;;;;;4.55;2.85;;;;;;;5.23;80.90;98924.52;1714942;81;21158;-63
2021/04/02 09:17:56;;;;;;;1.98;1.50;;;;;;;5.19;80.99;98929.63;1712871;83;22340;-65
2021/04/02 09:20:25;;;;;;;1.57;1.45;;;;;;;5.20;81.04;98935.14;1709647;84;21609;-58
2021/04/02 09:22:55;;;;;;;0.60;0.60;;;;;;;5.19;81.04;98929.63;1712435;83;21159;-66
2021/04/02 09:25:25;;;;;;;1.00;1.00;;;;;;;5.18;80.83;98924.61;1712805;83;21594;-66
2021/04/02 09:27:57;;;;;;;1.60;1.50;;;;;;;5.14;81.09;98928.76;1712825;83;21684;-65
2021/04/02 09:30:28;;;;;;;1.62;1.52;;;;;;;5.12;81.00;98927.28;1701104;82;21293;-67
2021/04/02 09:32:57;;;;;;;1.60;1.25;;;;;;;5.10;80.87;98930.02;1741203;82;21590;-67
2021/04/02 09:35:26;;;;;;;3.05;1.90;;;;;;;5.09;81.12;98932.73;1736848;82;21634;-60
2021/04/02 09:37:54;;;;;;;2.35;2.15;;;;;;;5.12;81.40;98939.75;1728750;82;21615;-65
2021/04/02 09:40:29;;;;;;;2.60;2.15;;;;;;;5.16;81.35;98940.30;1720688;83;21575;-60
2021/04/02 09:42:58;;;;;;;;;;;;;;;5.17;81.59;98939.33;1720420;83;21123;-59
2021/04/02 09:45:28;;;;;;;4.50;3.00;;;;;;;5.22;81.70;98941.02;1737113;82;20537;-60
2021/04/02 09:47:58;;;;;;;2.95;2.67;;;;;;;5.27;81.59;98944.45;1747971;82;21372;-59
2021/04/02 09:50:26;;;;;;;4.45;2.20;;;;;;;5.30;81.56;98942.41;1747555;82;21769;-60
2021/04/02 09:52:55;;;;;;;1.90;1.50;;;;;;;5.31;81.11;98934.16;1747523;82;22253;-59
2021/04/02 09:55:25;;;;;;;4.65;1.80;;;;;;;5.30;80.87;98936.42;1747798;82;21559;-59
2021/04/02 09:57:54;;;;;;;2.62;2.00;;;;;;;5.26;80.82;98934.58;1725089;82;21150;-63
2021/04/02 10:00:23;;;;;;;1.30;1.20;;;;;;;5.24;81.14;98939.09;1733830;83;21119;-58
2021/04/02 10:02:52;;;;;;;1.52;1.42;;;;;;;5.25;80.92;98940.72;1745923;82;21571;-60
2021/04/02 10:05:21;;;;;;;3.42;2.67;;;;;;;5.30;81.18;98940.30;1748366;82;21581;-59
2021/04/02 10:07:49;;;;;;;4.12;2.80;;;;;;;5.37;81.24;98947.35;1747958;81;21379;-59
2021/04/02 10:10:18;;;;;;;3.65;1.80;;;;;;;5.47;81.12;98948.62;1747223;81;21646;-58
2021/04/02 10:12:46;;;;;;;6.92;4.03;;;;;;;5.57;80.59;98949.37;1757370;80;21195;-60
2021/04/02 10:15:18;;;;;;;8.93;5.05;;;;;;;5.60;80.22;98955.58;1731333;81;21276;-60
2021/04/02 10:17:46;;;;;;;3.80;2.90;;;;;;;5.62;79.70;98964.02;1726243;81;21185;-59
2021/04/02 10:20:17;;;;;;;6.22;2.83;;;;;;;5.58;79.17;98963.95;1725826;82;21621;-61
2021/04/02 10:22:45;;;;;;;8.40;4.47;;;;;;;5.54;79.00;98965.22;1726141;83;21634;-59
2021/04/02 10:25:14;;;;;;;4.97;2.90;;;;;;;5.46;78.90;98962.51;1741857;81;21563;-60
2021/04/02 10:27:43;;;;;;;3.12;2.45;;;;;;;5.42;79.01;98966.36;1759902;81;21568;-59
2021/04/02 10:30:13;;;;;;;3.83;2.62;;;;;;;5.36;78.99;98958.67;1761370;81;21602;-60
2021/04/02 10:32:43;;;;;;;3.33;2.12;;;;;;;5.33;79.12;98966.72;1761592;81;21316;-60
2021/04/02 10:35:13;;;;;;;2.22;1.75;;;;;;;5.31;79.28;98960.88;1761234;81;21634;-60
2021/04/02 10:37:42;;;;;;;4.45;3.00;;;;;;;5.28;79.62;98963.77;1760051;81;21147;-60
2021/04/02 10:40:12;;;;;;;1.60;1.50;;;;;;;5.32;79.56;98961.69;1759755;81;21317;-61
2021/04/02 10:42:40;;;;;;;2.72;1.72;;;;;;;5.31;79.62;98968.64;1759620;80;21182;-59
2021/04/02 10:45:10;;;;;;;8.25;2.62;;;;;;;5.30;79.53;98959.25;1760827;81;21594;-59
2021/04/02 10:47:39;;;;;;;1.98;1.30;;;;;;;5.21;79.10;98963.97;1756769;81;21194;-59
2021/04/02 10:50:11;;;;;;;2.20;1.75;;;;;;;5.16;79.32;98978.33;1758771;81;21629;-59
2021/04/02 10:52:39;;;;;;;2.92;2.12;;;;;;;5.15;79.15;98969.70;1761522;81;21135;-59
2021/04/02 10:55:10;;;;;;;2.20;2.00;;;;;;;5.11;79.00;98981.33;1761540;81;21617;-61
2021/04/02 10:57:39;;;;;;;4.05;2.70;;;;;;;5.09;79.00;98980.17;1761281;81;21107;-59
2021/04/02 11:00:09;;;;;;;2.95;2.22;;;;;;;5.12;79.39;98981.17;1761684;81;21190;-61
2021/04/02 11:02:38;;;;;;;1.82;1.70;;;;;;;5.17;79.23;98980.77;1761460;81;21173;-59
2021/04/02 11:05:07;;;;;;;1.70;1.55;;;;;;;5.21;79.22;98982.09;1761127;81;21632;-64
2021/04/02 11:07:37;;;;;;;5.45;2.30;;;;;;;5.28;79.20;98987.52;1759375;80;21718;-64
2021/04/02 11:10:11;;;;;;;2.42;1.80;;;;;;;5.32;79.12;98986.30;1761826;81;21570;-61
2021/04/02 11:12:40;;;;;;;1.40;1.30;;;;;;;5.38;79.20;98984.44;1754016;81;21137;-64
2021/04/02 11:15:12;;;;;;;1.62;1.52;;;;;;;5.45;78.96;98980.80;1745075;82;21712;-64
2021/04/02 11:17:42;;;;;;;2.52;2.30;;;;;;;5.53;78.32;98985.62;1741464;81;21570;-63
2021/04/02 11:20:13;;;;;;;2.00;1.67;;;;;;;5.57;78.22;98982.24;1747566;82;21163;-58
2021/04/02 11:22:42;;;;;;;1.70;1.50;;;;;;;5.64;78.14;98984.11;1747697;82;21766;-58
2021/04/02 11:25:12;;;;;;;4.42;2.00;;;;;;;5.71;78.04;98984.35;1740501;82;21748;-60
2021/04/02 11:27:40;;;;;;;3.85;2.08;;;;;;;5.79;77.78;98985.77;1735844;82;21187;-58
2021/04/02 11:30:14;;;;;;;4.28;2.90;;;;;;;5.85;77.22;98977.89;1718349;83;21199;-58
2021/04/02 11:32:43;;;;;;;6.65;3.72;;;;;;;5.86;77.00;98984.70;1742285;82;21271;-58
2021/04/02 11:35:13;;;;;;;4.85;2.40;;;;;;;5.92;77.03;98986.75;1746873;81;21587;-58
2021/04/02 11:37:41;;;;;;;3.08;1.92;;;;;;;6.02;77.04;98978.41;1746669;82;21274;-59
2021/04/02 11:40:12;;;;;;;5.30;2.65;;;;;;;6.03;76.55;98974.06;1747991;82;21630;-58
2021/04/02 11:42:41;;;;;;;1.65;1.52;;;;;;;6.01;76.52;98984.56;1745663;82;21198;-57
2021/04/02 11:45:11;;;;;;;2.10;1.42;;;;;;;6.03;76.05;98984.44;1745162;82;21163;-58
2021/04/02 11:47:39;;;;;;;3.00;2.35;;;;;;;6.04;75.75;98997.73;1747327;82;21143;-59
2021/04/02 11:50:09;;;;;;;3.92;2.47;;;;;;;6.03;75.43;98990.44;1746940;82;21642;-58
2021/04/02 11:52:39;;;;;;;2.67;1.98;;;;;;;5.98;75.34;98988.76;1747784;82;22364;-58
2021/04/02 11:55:09;;;;;;;3.00;2.33;;;;;;;5.98;75.30;98996.53;1747580;82;21119;-58
2021/04/02 11:57:38;;;;;;;1.80;1.70;;;;;;;6.00;75.12;98991.20;1747139;82;21579;-58
2021/04/02 12:00:11;;;;;;;4.83;2.00;;;;;;;6.00;75.26;98997.20;1746569;82;21188;-57
2021/04/02 12:02:40;;;;;;;2.20;1.70;;;;;;;6.04;75.57;98991.25;1748194;82;21104;-58
2021/04/02 12:05:09;;;;;;;5.67;1.80;;;;;;;6.04;74.94;98992.55;1748178;82;21159;-58
2021/04/02 12:07:41;;;;;;;2.87;2.00;;;;;;;6.01;74.70;98993.64;1747926;81;21160;-58
2021/04/02 12:10:11;;;;;;;4.17;2.17;;;;;;;6.08;75.29;98988.20;1747421;82;21304;-58
2021/04/02 12:12:40;;;;;;;1.85;1.45;;;;;;;6.16;75.42;98988.78;1753715;81;21151;-58
2021/04/02 12:15:10;;;;;;;1.70;1.30;;;;;;;6.18;74.91;98986.84;1760836;81;21582;-57
2021/04/02 12:17:39;;;;;;;2.15;1.55;;;;;;;6.17;74.85;98993.81;1761642;81;21606;-58
2021/04/02 12:20:11;;;;;;;2.60;1.20;;;;;;;6.20;74.80;98992.70;1761121;81;21657;-58
2021/04/02 12:22:40;;;;;;;2.58;1.60;;;;;;;6.28;75.16;98989.39;1759950;81;21108;-58
2021/04/02 12:25:11;;;;;;;1.35;1.20;;;;;;;6.39;74.48;98991.73;1747643;81;21281;-58
2021/04/02 12:27:39;;;;;;;2.15;1.40;;;;;;;6.42;73.77;98988.37;1759106;81;21135;-58
2021/04/02 12:30:12;;;;;;;2.65;1.50;;;;;;;6.38;73.50;98995.30;1759081;81;21191;-58
2021/04/02 12:32:41;;;;;;;1.40;1.27;;;;;;;6.29;72.94;98997.02;1742459;81;21167;-59
2021/04/02 12:35:10;;;;;;;2.40;1.10;;;;;;;6.23;72.88;98998.09;1759911;81;21763;-59
2021/04/02 12:37:40;;;;;;;1.00;0.80;;;;;;;6.27;72.87;98995.52;1760266;81;21337;-58
2021/04/02 12:40:17;;;;;;;2.35;1.47;;;;;;;6.27;72.18;98998.11;1759597;81;21610;-59
2021/04/02 12:42:46;;;;;;;0.85;0.85;;;;;;;6.19;72.37;99005.34;1760181;81;21563;-58
2021/04/02 12:45:15;;;;;;;1.25;0.90;;;;;;;6.19;71.97;98996.25;1761317;81;21186;-58
2021/04/02 12:47:44;;;;;;;1.07;0.98;;;;;;;6.24;71.94;98999.72;1760105;81;21606;-58
2021/04/02 12:50:20;;;;;;;0.93;0.70;;;;;;;6.36;72.18;99002.42;1759575;81;21187;-59
2021/04/02 12:52:48;;;;;;;1.27;1.02;;;;;;;6.45;71.80;99003.64;1759737;81;21155;-58
2021/04/02 12:55:20;;;;;;;0.95;0.80;;;;;;;6.54;71.45;99001.14;1759343;81;22269;-58
2021/04/02 12:57:50;;;;;;;2.33;1.30;;;;;;;6.58;70.76;99008.94;1760112;81;21577;-57
2021/04/02 13:00:22;;;;;;;1.52;1.40;;;;;;;6.52;70.23;99000.00;1760219;81;21609;-58
2021/04/02 13:02:50;;;;;;;1.60;1.00;;;;;;;6.53;70.10;99006.00;1760976;81;21183;-57
2021/04/02 13:05:18;;;;;;;1.40;1.05;;;;;;;6.55;70.34;99002.77;1759297;80;21150;-57
2021/04/02 13:07:47;;;;;;;1.20;1.00;;;;;;;6.50;70.43;99004.50;1760986;80;22204;-58
2021/04/02 13:10:16;;;;;;;1.10;0.70;;;;;;;6.48;70.68;99003.84;1760714;81;21292;-57
2021/04/02 13:12:46;;;;;;;1.60;0.78;;;;;;;6.52;70.69;99004.34;1756295;81;21341;-57
2021/04/02 13:15:16;;;;;;;1.20;1.00;;;;;;;6.59;70.75;99005.41;1748185;82;21186;-57
2021/04/02 13:17:45;;;;;;;0.82;0.78;;;;;;;6.64;71.14;98997.95;1746309;82;21309;-56
2021/04/02 13:20:24;;;;;;;0.90;0.65;;;;;;;6.67;69.62;98998.97;1737105;82;21194;-56
